Time;durP1;ratioP1;P1;durP2;ratioP2;P2;SDS_P1;SDS_P2;PMS_P1;PMS_P2;Temp;Humidity;BMP_temperature;BMP_pressure;BME280_temperature;BME280_humidity;BME280_pressure;Samples;Min_cycle;Max_cycle;Signal;HPM_P1;HPM_P2
2022/05/16 00:00:25;;;;;;;8.48;3.13;;;;;;;-141.50;100.00;63355.56;5084726;28;20106;-80
2022/05/16 00:02:54;;;;;;;8.32;2.70;;;;;;;-141.50;100.00;63355.56;5097919;28;20667;-83
2022/05/16 00:05:21;;;;;;;12.80;3.33;;;;;;;-141.50;100.00;63355.56;5077402;28;20052;-82
2022/05/16 00:07:48;;;;;;;9.48;3.38;;;;;;;-141.50;100.00;63355.56;5075148;28;20496;-83
2022/05/16 00:10:15;;;;;;;10.10;3.60;;;;;;;-141.50;100.00;63355.56;5092609;28;20044;-82
2022/05/16 00:12:42;;;;;;;7.45;3.35;;;;;;;-141.50;100.00;63355.56;5093011;28;20067;-84
2022/05/16 00:15:10;;;;;;;8.60;3.35;;;;;;;-141.50;100.00;63355.56;5093881;28;20052;-82
2022/05/16 00:17:37;;;;;;;10.70;3.28;;;;;;;-141.50;100.00;63355.56;5059860;28;20080;-82
2022/05/16 00:20:04;;;;;;;9.95;3.45;;;;;;;-141.50;100.00;63355.56;5054457;28;20421;-81
2022/05/16 00:22:32;;;;;;;11.93;3.40;;;;;;;-141.50;100.00;63355.56;5070412;28;20396;-81
2022/05/16 00:24:58;;;;;;;9.48;3.28;;;;;;;-141.50;100.00;63355.56;5051851;28;20083;-83
2022/05/16 00:27:25;;;;;;;6.35;3.10;;;;;;;-141.50;100.00;63355.56;5070711;28;20048;-82
2022/05/16 00:29:51;;;;;;;8.30;3.22;;;;;;;-141.50;100.00;63355.56;5070543;28;20100;-82
2022/05/16 00:32:18;;;;;;;8.45;3.20;;;;;;;-141.50;100.00;63355.56;5054017;28;20049;-84
2022/05/16 00:34:45;;;;;;;7.50;2.58;;;;;;;-141.50;100.00;63355.56;5082073;28;20049;-84
2022/05/16 00:37:11;;;;;;;7.55;3.00;;;;;;;-141.50;100.00;63355.56;5053999;28;20048;-81
2022/05/16 00:39:38;;;;;;;9.93;3.72;;;;;;;-141.50;100.00;63355.56;5070324;28;20151;-83
2022/05/16 00:42:11;;;;;;;12.73;3.05;;;;;;;-141.50;100.00;63355.56;5070221;28;20128;-83
2022/05/16 00:44:41;;;;;;;11.75;2.83;;;;;;;-141.50;100.00;63355.56;5071262;28;20088;-80
2022/05/16 00:47:07;;;;;;;7.45;3.28;;;;;;;-141.50;100.00;63355.56;5053309;28;20117;-82
2022/05/16 00:49:37;;;;;;;8.55;3.15;;;;;;;-141.50;100.00;63355.56;5054207;28;20135;-81
2022/05/16 00:52:08;;;;;;;10.43;3.35;;;;;;;-141.50;100.00;63355.56;5074862;28;20052;-82
2022/05/16 00:55:00;;;;;;;8.88;2.85;;;;;;;-141.50;100.00;63355.56;5074765;28;20049;-81
2022/05/16 00:57:42;;;;;;;6.13;3.20;;;;;;;-141.50;100.00;63355.56;5056351;28;20431;-83
2022/05/16 01:00:18;;;;;;;7.82;3.28;;;;;;;-141.50;100.00;63355.56;5055345;28;20103;-83
2022/05/16 01:05:36;;;;;;;8.07;3.25;;;;;;;-141.50;100.00;63355.56;5073088;28;20249;-82
2022/05/16 01:08:06;;;;;;;6.50;3.10;;;;;;;-141.50;100.00;63355.56;5055341;28;20076;-82
2022/05/16 01:10:33;;;;;;;10.27;3.03;;;;;;;-141.50;100.00;63355.56;5073983;28;20055;-81
2022/05/16 01:13:04;;;;;;;9.43;3.20;;;;;;;-141.50;100.00;63355.56;5073329;28;20057;-82
2022/05/16 01:15:44;;;;;;;7.93;3.25;;;;;;;-141.50;100.00;63355.56;5074668;28;20075;-82
2022/05/16 01:18:14;;;;;;;9.50;3.00;;;;;;;-141.50;100.00;63355.56;5058800;28;20086;-82
2022/05/16 01:21:08;;;;;;;8.40;2.83;;;;;;;-141.50;100.00;63355.56;5072856;28;20087;-84
2022/05/16 01:23:41;;;;;;;6.95;3.17;;;;;;;-141.50;100.00;63355.56;5057029;28;20652;-82
2022/05/16 01:26:13;;;;;;;7.22;3.00;;;;;;;-141.50;100.00;63355.56;5074052;28;20155;-82
2022/05/16 01:28:39;;;;;;;7.32;2.78;;;;;;;-141.50;100.00;63355.56;5073480;28;20431;-81
2022/05/16 01:31:06;;;;;;;15.35;3.40;;;;;;;-141.50;100.00;63355.56;5072645;28;20132;-80
2022/05/16 01:33:33;;;;;;;13.20;3.50;;;;;;;-141.50;100.00;63355.56;5084872;28;20056;-82
2022/05/16 01:36:00;;;;;;;9.27;3.55;;;;;;;-141.50;100.00;63355.56;5081230;28;20535;-82
2022/05/16 01:38:28;;;;;;;8.82;3.30;;;;;;;-141.50;100.00;63355.56;5059728;28;20076;-82
2022/05/16 01:41:02;;;;;;;9.65;3.40;;;;;;;-141.50;100.00;63355.56;5057625;28;20086;-83
2022/05/16 01:43:36;;;;;;;8.55;3.50;;;;;;;-141.50;100.00;63355.56;5074524;28;20086;-83
2022/05/16 01:46:03;;;;;;;9.70;3.80;;;;;;;-141.50;100.00;63355.56;5057294;28;20054;-83
2022/05/16 01:48:31;;;;;;;7.93;3.17;;;;;;;-141.50;100.00;63355.56;5057765;28;20071;-82
2022/05/16 01:51:02;;;;;;;9.10;3.90;;;;;;;-141.50;100.00;63355.56;5080227;28;20044;-84
2022/05/16 01:53:29;;;;;;;6.85;3.72;;;;;;;-141.50;100.00;63355.56;5062585;28;20121;-83
2022/05/16 01:55:59;;;;;;;8.85;3.97;;;;;;;-141.50;100.00;63355.56;5062498;28;20052;-83
2022/05/16 01:58:26;;;;;;;8.80;4.25;;;;;;;-141.50;100.00;63355.56;5080320;28;20071;-84
2022/05/16 02:00:53;;;;;;;12.75;4.13;;;;;;;-141.50;100.00;63355.56;5080477;28;20059;-80
2022/05/16 02:03:20;;;;;;;14.63;4.30;;;;;;;-141.50;100.00;63355.56;5079427;28;20512;-84
2022/05/16 02:05:47;;;;;;;11.77;4.50;;;;;;;-141.50;100.00;63355.56;5079856;28;20114;-85
2022/05/16 02:08:15;;;;;;;8.60;4.10;;;;;;;-141.50;100.00;63355.56;5060211;28;20503;-83
2022/05/16 02:10:43;;;;;;;9.18;4.53;;;;;;;-141.50;100.00;63355.56;5080569;28;20052;-81
2022/05/16 02:13:12;;;;;;;10.32;4.70;;;;;;;-141.50;100.00;63355.56;5088947;28;20066;-81
2022/05/16 02:15:40;;;;;;;13.15;4.35;;;;;;;-141.50;100.00;63355.56;5090367;28;20048;-81
2022/05/16 02:18:08;;;;;;;9.65;4.65;;;;;;;-141.50;100.00;63355.56;5091992;28;20059;-82
2022/05/16 02:20:36;;;;;;;9.85;4.60;;;;;;;-141.50;100.00;63355.56;5103931;28;20063;-80
2022/05/16 02:25:53;;;;;;;13.73;4.45;;;;;;;-141.50;100.00;63355.56;5102999;28;20056;-80
2022/05/16 02:28:23;;;;;;;10.05;4.28;;;;;;;-141.50;100.00;63355.56;5102319;28;20051;-83
2022/05/16 02:30:54;;;;;;;13.98;4.40;;;;;;;-141.50;100.00;63355.56;5084863;28;20055;-82
2022/05/16 02:33:21;;;;;;;12.00;4.60;;;;;;;-141.50;100.00;63355.56;5100991;28;20207;-81
2022/05/16 02:35:48;;;;;;;9.15;4.40;;;;;;;-141.50;100.00;63355.56;5084076;28;20123;-81
2022/05/16 02:38:18;;;;;;;16.67;5.38;;;;;;;-141.50;100.00;63355.56;5093904;28;20140;-81
2022/05/16 02:40:44;;;;;;;12.48;4.85;;;;;;;-141.50;100.00;63355.56;5098919;28;20067;-79
2022/05/16 02:43:11;;;;;;;12.63;5.10;;;;;;;-141.50;100.00;63355.56;5098241;28;20071;-82
2022/05/16 02:45:37;;;;;;;15.30;4.80;;;;;;;-141.50;100.00;63355.56;5098899;28;20086;-82
2022/05/16 02:48:05;;;;;;;14.75;5.05;;;;;;;-141.50;100.00;63355.56;5098294;28;20508;-84
2022/05/16 02:50:32;;;;;;;16.08;5.38;;;;;;;-141.50;100.00;63355.56;5109357;28;20456;-78
2022/05/16 02:52:58;;;;;;;11.45;5.25;;;;;;;-141.50;100.00;63355.56;5106288;28;20055;-83
2022/05/16 02:55:25;;;;;;;12.23;5.28;;;;;;;-141.50;100.00;63355.56;5109286;28;20056;-81
2022/05/16 02:57:52;;;;;;;13.73;4.70;;;;;;;-141.50;100.00;63355.56;5091151;28;20056;-80
2022/05/16 03:00:28;;;;;;;9.25;4.68;;;;;;;-141.50;100.00;63355.56;5090678;28;20052;-81
2022/05/16 03:02:56;;;;;;;15.65;4.97;;;;;;;-141.50;100.00;63355.56;5088303;28;20456;-79
2022/05/16 03:05:23;;;;;;;12.30;4.65;;;;;;;-141.50;100.00;63355.56;5108996;28;20128;-81
2022/05/16 03:07:52;;;;;;;9.98;5.32;;;;;;;-141.50;100.00;63355.56;5101117;28;20511;-82
2022/05/16 03:10:19;;;;;;;14.50;5.60;;;;;;;-141.50;100.00;63355.56;5082049;28;20059;-84
2022/05/16 03:12:46;;;;;;;15.38;5.30;;;;;;;-141.50;100.00;63355.56;5097011;28;20054;-82
2022/05/16 03:15:14;;;;;;;22.60;5.78;;;;;;;-141.50;100.00;63355.56;5074479;28;20590;-82
2022/05/16 03:17:42;;;;;;;13.35;5.82;;;;;;;-141.50;100.00;63355.56;5080891;28;20078;-83
2022/05/16 03:20:12;;;;;;;11.50;5.07;;;;;;;-141.50;100.00;63355.56;5076952;28;20052;-84
2022/05/16 03:22:39;;;;;;;11.35;4.47;;;;;;;-141.50;100.00;63355.56;5058701;28;20070;-81
2022/05/16 03:25:06;;;;;;;11.80;4.40;;;;;;;-141.50;100.00;63355.56;5058765;28;20080;-83
2022/05/16 03:27:32;;;;;;;16.17;4.85;;;;;;;-141.50;100.00;63355.56;5075644;28;20066;-80
2022/05/16 03:29:59;;;;;;;12.77;4.30;;;;;;;-141.50;100.00;63355.56;5057878;28;20130;-84
2022/05/16 03:32:25;;;;;;;16.20;4.53;;;;;;;-141.50;100.00;63355.56;5076802;28;20512;-83
2022/05/16 03:34:55;;;;;;;20.38;4.82;;;;;;;-141.50;100.00;63355.56;5075932;28;20080;-82
2022/05/16 03:37:22;;;;;;;12.90;4.25;;;;;;;-141.50;100.00;63355.56;5081687;28;20044;-81
2022/05/16 03:42:34;;;;;;;10.27;4.35;;;;;;;-141.50;100.00;63355.56;5131953;27;20134;-78
2022/05/16 03:45:01;;;;;;;12.95;4.85;;;;;;;-141.50;100.00;63355.56;5134536;27;20040;-78
2022/05/16 03:47:27;;;;;;;12.35;4.75;;;;;;;-141.50;100.00;63355.56;5115510;28;20107;-81
2022/05/16 03:49:54;;;;;;;11.57;4.70;;;;;;;-141.50;100.00;63355.56;5119789;28;20051;-85
2022/05/16 03:52:21;;;;;;;10.35;4.15;;;;;;;-141.50;100.00;63355.56;5126681;28;20063;-80
2022/05/16 03:54:48;;;;;;;15.50;4.72;;;;;;;-141.50;100.00;63355.56;5125016;28;20047;-84
2022/05/16 03:57:14;;;;;;;19.05;4.95;;;;;;;-141.50;100.00;63355.56;5118621;28;20055;-84
2022/05/16 03:59:41;;;;;;;12.27;4.63;;;;;;;-141.50;100.00;63355.56;5118306;28;20050;-81
2022/05/16 04:02:10;;;;;;;15.45;5.03;;;;;;;-141.50;100.00;63355.56;5113251;28;20511;-83
2022/05/16 04:04:37;;;;;;;15.25;4.68;;;;;;;-141.50;100.00;63355.56;5116303;28;20051;-83
2022/05/16 04:07:04;;;;;;;12.27;4.50;;;;;;;-141.50;100.00;63355.56;5118667;28;20444;-79
2022/05/16 04:09:30;;;;;;;12.27;4.38;;;;;;;-141.50;100.00;63355.56;5100155;28;20464;-82
2022/05/16 04:11:57;;;;;;;10.02;4.10;;;;;;;-141.50;100.00;63355.56;5114440;28;20121;-82
2022/05/16 04:14:24;;;;;;;11.48;4.43;;;;;;;-141.50;100.00;63355.56;5098677;28;20051;-79
2022/05/16 04:16:51;;;;;;;13.77;4.25;;;;;;;-141.50;100.00;63355.56;5107462;28;20052;-81
2022/05/16 04:19:18;;;;;;;14.32;4.40;;;;;;;-141.50;100.00;63355.56;5096251;28;20051;-79
2022/05/16 04:21:44;;;;;;;14.90;4.22;;;;;;;-141.50;100.00;63355.56;5097979;28;20082;-84
2022/05/16 04:24:11;;;;;;;11.82;4.30;;;;;;;-141.50;100.00;63355.56;5104410;28;20509;-83
2022/05/16 04:26:38;;;;;;;15.48;3.97;;;;;;;-141.50;100.00;63355.56;5100919;28;20036;-81
2022/05/16 04:29:04;;;;;;;13.45;4.10;;;;;;;-141.50;100.00;63355.56;5082114;28;20128;-79
2022/05/16 04:31:31;;;;;;;12.90;4.00;;;;;;;-141.50;100.00;63355.56;5075943;28;20048;-80
2022/05/16 04:33:58;;;;;;;12.80;3.90;;;;;;;-141.50;100.00;63355.56;5101339;28;20051;-81
2022/05/16 04:36:25;;;;;;;13.52;4.00;;;;;;;-141.50;100.00;63355.56;5106551;28;20044;-79
2022/05/16 04:38:54;;;;;;;12.50;3.95;;;;;;;-141.50;100.00;63355.56;5107191;28;20106;-83
2022/05/16 04:44:08;;;;;;;13.48;4.65;;;;;;;-141.50;100.00;63355.56;5088221;28;20072;-80
2022/05/16 04:46:35;;;;;;;13.65;4.50;;;;;;;-141.50;100.00;63355.56;5084315;28;20052;-80
2022/05/16 04:49:02;;;;;;;15.93;4.65;;;;;;;-141.50;100.00;63355.56;5083942;28;20474;-82
2022/05/16 04:51:31;;;;;;;10.02;4.30;;;;;;;-141.50;100.00;63355.56;5074147;28;20047;-80
2022/05/16 04:53:58;;;;;;;12.68;4.82;;;;;;;-141.50;100.00;63355.56;5095981;28;20079;-83
2022/05/16 04:56:27;;;;;;;12.52;4.57;;;;;;;-141.50;100.00;63355.56;5092932;28;20083;-81
2022/05/16 04:58:54;;;;;;;9.77;4.30;;;;;;;-141.50;100.00;63355.56;5070434;28;20138;-83
2022/05/16 05:01:20;;;;;;;12.07;4.10;;;;;;;-141.50;100.00;63355.56;5071140;28;20098;-84
2022/05/16 05:03:49;;;;;;;15.00;4.90;;;;;;;-141.50;100.00;63355.56;5081352;28;20066;-79
2022/05/16 05:06:17;;;;;;;14.00;5.18;;;;;;;-141.50;100.00;63355.56;5084953;28;20104;-82
2022/05/16 05:08:45;;;;;;;21.48;5.40;;;;;;;-141.50;100.00;63355.56;5077286;28;20657;-80
2022/05/16 05:16:49;;;;;;;13.70;5.22;;;;;;;-141.50;100.00;63355.56;5088184;28;20045;-82
2022/05/16 05:19:15;;;;;;;15.90;4.95;;;;;;;-141.50;100.00;63355.56;5084928;28;20052;-80
2022/05/16 05:21:42;;;;;;;12.57;4.93;;;;;;;-141.50;100.00;63355.56;5076647;28;20045;-80
2022/05/16 05:24:09;;;;;;;13.27;5.07;;;;;;;-141.50;100.00;63355.56;5059585;28;20048;-82
2022/05/16 05:26:39;;;;;;;10.95;5.15;;;;;;;-141.50;100.00;63355.56;5058272;28;20053;-81
2022/05/16 05:29:07;;;;;;;14.90;4.78;;;;;;;-141.50;100.00;63355.56;5059584;28;20085;-81
2022/05/16 05:31:39;;;;;;;15.15;4.88;;;;;;;-141.50;100.00;63355.56;5060079;28;20109;-83
2022/05/16 05:34:06;;;;;;;10.32;4.72;;;;;;;-141.50;100.00;63355.56;5084966;28;20060;-80
2022/05/16 05:36:41;;;;;;;14.13;5.43;;;;;;;-141.50;100.00;63355.56;5065773;28;20052;-81
2022/05/16 05:39:16;;;;;;;15.20;5.32;;;;;;;-141.50;100.00;63355.56;5063613;28;20056;-83
2022/05/16 05:41:44;;;;;;;14.45;5.03;;;;;;;-141.50;100.00;63355.56;5085168;28;20072;-81
2022/05/16 05:44:11;;;;;;;13.48;4.95;;;;;;;-141.50;100.00;63355.56;5082612;28;20049;-81
2022/05/16 05:46:39;;;;;;;10.82;4.50;;;;;;;-141.50;100.00;63355.56;5058561;28;20049;-80
2022/05/16 05:49:09;;;;;;;13.50;4.05;;;;;;;-141.50;100.00;63355.56;5073598;28;20094;-81
2022/05/16 05:51:36;;;;;;;11.70;3.83;;;;;;;-141.50;100.00;63355.56;5057158;28;20063;-81
2022/05/16 05:54:03;;;;;;;13.70;4.50;;;;;;;-141.50;100.00;63355.56;5087918;28;20122;-80
2022/05/16 05:56:30;;;;;;;11.45;4.20;;;;;;;-141.50;100.00;63355.56;5063946;28;20048;-81
2022/05/16 05:58:57;;;;;;;12.15;3.60;;;;;;;-141.50;100.00;63355.56;5080373;28;20091;-83
2022/05/16 06:01:23;;;;;;;15.77;3.60;;;;;;;-141.50;100.00;63355.56;5078944;28;20071;-81
2022/05/16 06:03:50;;;;;;;12.50;3.85;;;;;;;-141.50;100.00;63355.56;5072054;28;20131;-82
2022/05/16 06:06:17;;;;;;;10.70;3.58;;;;;;;-141.50;100.00;63355.56;5053869;28;20059;-83
2022/05/16 06:08:46;;;;;;;15.45;3.65;;;;;;;-141.50;100.00;63355.56;5054941;28;20049;-83
2022/05/16 06:11:13;;;;;;;10.13;3.20;;;;;;;-141.50;100.00;63355.56;5056212;28;20394;-81
2022/05/16 06:13:40;;;;;;;16.27;3.42;;;;;;;-141.50;100.00;63355.56;5073733;28;20198;-82
2022/05/16 06:16:08;;;;;;;12.20;3.00;;;;;;;-141.50;100.00;63355.56;5077635;28;20049;-78
2022/05/16 06:18:36;;;;;;;12.50;3.40;;;;;;;-141.50;100.00;63355.56;5096710;28;20052;-82
2022/05/16 06:21:04;;;;;;;12.90;3.47;;;;;;;-141.50;100.00;63355.56;5079892;28;20074;-80
2022/05/16 06:23:30;;;;;;;15.93;3.70;;;;;;;-141.50;100.00;63355.56;5099534;28;20055;-81
2022/05/16 06:25:58;;;;;;;11.05;3.25;;;;;;;-141.50;100.00;63355.56;5081055;28;20048;-79
2022/05/16 06:28:27;;;;;;;14.63;3.33;;;;;;;-141.50;100.00;63355.56;5098609;28;20110;-79
2022/05/16 06:30:56;;;;;;;11.95;3.05;;;;;;;-141.50;100.00;63355.56;5099453;28;20116;-79
2022/05/16 06:33:25;;;;;;;11.18;3.28;;;;;;;-141.50;100.00;63355.56;5080389;28;20051;-80
2022/05/16 06:35:53;;;;;;;10.98;3.47;;;;;;;-141.50;100.00;63355.56;5097917;28;20050;-80
2022/05/16 06:38:22;;;;;;;9.57;2.83;;;;;;;-141.50;100.00;63355.56;5099319;28;20440;-80
2022/05/16 06:40:49;;;;;;;14.50;3.38;;;;;;;-141.50;100.00;63355.56;5098711;28;20082;-82
2022/05/16 06:43:18;;;;;;;25.23;3.83;;;;;;;-141.50;100.00;63355.56;5090522;28;20052;-79
2022/05/16 06:45:45;;;;;;;14.60;3.22;;;;;;;-141.50;100.00;63355.56;5097382;28;20094;-82
2022/05/16 06:48:12;;;;;;;16.50;3.70;;;;;;;-141.50;100.00;63355.56;5097038;28;20054;-78
2022/05/16 06:50:41;;;;;;;13.77;3.22;;;;;;;-141.50;100.00;63355.56;5074265;28;20052;-79
2022/05/16 06:53:13;;;;;;;12.20;3.08;;;;;;;-141.50;100.00;63355.56;5094086;28;20044;-81
2022/05/16 06:55:40;;;;;;;10.70;2.95;;;;;;;-141.50;100.00;63355.56;5094309;28;20520;-81
2022/05/16 06:58:09;;;;;;;12.38;3.10;;;;;;;-141.50;100.00;63355.56;5094923;28;20075;-79
2022/05/16 07:00:36;;;;;;;11.38;2.80;;;;;;;-141.50;100.00;63355.56;5095688;28;20450;-81
2022/05/16 07:03:04;;;;;;;10.60;3.10;;;;;;;-141.50;100.00;63355.56;5093841;28;20465;-80
2022/05/16 07:05:48;;;;;;;14.15;2.97;;;;;;;-141.50;100.00;63355.56;5090788;28;20109;-82
2022/05/16 07:08:17;;;;;;;10.00;2.58;;;;;;;-141.50;100.00;63355.56;5085918;28;20522;-80
2022/05/16 07:10:46;;;;;;;12.55;3.25;;;;;;;-141.50;100.00;63355.56;5086118;28;20079;-83
2022/05/16 07:13:19;;;;;;;12.57;3.05;;;;;;;-141.50;100.00;63355.56;5086071;28;20527;-81
2022/05/16 07:15:46;;;;;;;15.15;3.40;;;;;;;-141.50;100.00;63355.56;5100291;28;20117;-82
2022/05/16 07:18:14;;;;;;;19.08;3.38;;;;;;;-141.50;100.00;63355.56;5061279;28;20139;-82
2022/05/16 07:20:41;;;;;;;13.55;3.20;;;;;;;-141.50;100.00;63355.56;5075353;28;20706;-82
2022/05/16 07:23:07;;;;;;;14.68;3.30;;;;;;;-141.50;100.00;63355.56;5060209;28;20069;-83
2022/05/16 07:27:56;;;;;;;13.13;2.95;;;;;;;-141.50;100.00;63355.56;5076091;28;20045;-82
2022/05/16 07:28:22;;;;;;;18.30;3.50;;;;;;;-141.50;100.00;63355.56;5072131;28;20079;-79
2022/05/16 07:30:49;;;;;;;20.45;3.42;;;;;;;-141.50;100.00;63355.56;5074899;28;20078;-81
2022/05/16 07:33:16;;;;;;;17.15;2.90;;;;;;;-141.50;100.00;63355.56;5059638;28;20531;-80
2022/05/16 07:35:50;;;;;;;15.18;3.35;;;;;;;-141.50;100.00;63355.56;5063344;28;20573;-78
2022/05/16 07:38:20;;;;;;;18.50;3.17;;;;;;;-141.50;100.00;63355.56;5077724;28;20127;-80
2022/05/16 07:40:47;;;;;;;20.40;3.53;;;;;;;-141.50;100.00;63355.56;5075778;28;20075;-81
2022/05/16 07:43:15;;;;;;;19.05;3.63;;;;;;;-141.50;100.00;63355.56;5077274;28;20052;-79
2022/05/16 07:45:42;;;;;;;10.50;2.80;;;;;;;-141.50;100.00;63355.56;5058962;28;20075;-82
2022/05/16 07:48:08;;;;;;;14.13;3.30;;;;;;;-141.50;100.00;63355.56;5059621;28;20137;-82
2022/05/16 07:50:37;;;;;;;10.25;3.30;;;;;;;-141.50;100.00;63355.56;5076830;28;20450;-80
2022/05/16 07:53:05;;;;;;;10.93;3.10;;;;;;;-141.50;100.00;63355.56;5059880;28;20085;-81
2022/05/16 07:55:31;;;;;;;6.45;2.38;;;;;;;-141.50;100.00;63355.56;5060370;28;20044;-81
2022/05/16 07:57:58;;;;;;;10.75;2.95;;;;;;;-141.50;100.00;63355.56;5054361;28;20056;-82
2022/05/16 08:00:24;;;;;;;9.15;2.92;;;;;;;-141.50;100.00;63355.56;5080765;28;20048;-77
2022/05/16 08:02:51;;;;;;;10.13;2.45;;;;;;;-141.50;100.00;63355.56;5075231;28;20048;-78
2022/05/16 08:05:20;;;;;;;12.63;2.65;;;;;;;-141.50;100.00;63355.56;5075483;28;20043;-79
2022/05/16 08:10:34;;;;;;;9.50;2.67;;;;;;;-141.50;100.00;63355.56;5080985;28;20078;-82
2022/05/16 08:13:05;;;;;;;15.18;2.90;;;;;;;-141.50;100.00;63355.56;5082961;28;20128;-79
2022/05/16 08:15:33;;;;;;;14.13;2.95;;;;;;;-141.50;100.00;63355.56;5069314;28;20066;-78
2022/05/16 08:18:02;;;;;;;13.75;2.90;;;;;;;-141.50;100.00;63355.56;5103660;28;20506;-79
2022/05/16 08:20:29;;;;;;;9.57;2.80;;;;;;;-141.50;100.00;63355.56;5092195;28;20101;-82
2022/05/16 08:22:56;;;;;;;10.07;2.80;;;;;;;-141.50;100.00;63355.56;5100206;28;20119;-81
2022/05/16 08:25:23;;;;;;;12.32;2.70;;;;;;;-141.50;100.00;63355.56;5107988;28;20496;-80
2022/05/16 08:27:50;;;;;;;9.05;2.65;;;;;;;-141.50;100.00;63355.56;5083252;28;20052;-81
2022/05/16 08:30:22;;;;;;;10.20;2.60;;;;;;;-141.50;100.00;63355.56;5082225;28;20052;-83
2022/05/16 08:32:49;;;;;;;10.32;2.53;;;;;;;-141.50;100.00;63355.56;5080939;28;20044;-80
2022/05/16 08:35:18;;;;;;;11.13;2.60;;;;;;;-141.50;100.00;63355.56;5080613;28;20052;-81
2022/05/16 08:41:05;;;;;;;9.00;2.90;;;;;;;-141.50;100.00;63355.56;5097908;28;20631;-82
2022/05/16 08:43:51;;;;;;;15.15;2.78;;;;;;;-141.50;100.00;63355.56;5097056;28;20039;-82
2022/05/16 08:46:24;;;;;;;13.60;3.00;;;;;;;-141.50;100.00;63355.56;5100823;28;20052;-81
2022/05/16 08:48:57;;;;;;;9.20;2.67;;;;;;;-141.50;100.00;63355.56;5089701;28;20105;-82
2022/05/16 08:51:26;;;;;;;11.98;2.95;;;;;;;-141.50;100.00;63355.56;5073033;28;20090;-80
2022/05/16 08:53:56;;;;;;;10.63;2.78;;;;;;;-141.50;100.00;63355.56;5072482;28;20048;-82
2022/05/16 08:56:28;;;;;;;11.05;2.70;;;;;;;-141.50;100.00;63355.56;5074561;28;20177;-79
2022/05/16 08:59:00;;;;;;;10.23;3.08;;;;;;;-141.50;100.00;63355.56;5091785;28;20542;-81
2022/05/16 09:01:39;;;;;;;9.63;2.50;;;;;;;-141.50;100.00;63355.56;5073846;28;20097;-80
2022/05/16 09:04:14;;;;;;;9.70;2.90;;;;;;;-141.50;100.00;63355.56;5100740;28;20067;-82
2022/05/16 09:06:49;;;;;;;7.25;2.30;;;;;;;-141.50;100.00;63355.56;5102759;28;20079;-82
2022/05/16 09:09:22;;;;;;;8.57;2.17;;;;;;;-141.50;100.00;63355.56;5094324;28;20056;-80
2022/05/16 09:11:57;;;;;;;10.07;2.70;;;;;;;-141.50;100.00;63355.56;5090270;28;20044;-77
2022/05/16 09:14:48;;;;;;;8.60;2.30;;;;;;;-141.50;100.00;63355.56;5091846;28;20049;-80
2022/05/16 09:17:39;;;;;;;6.97;2.40;;;;;;;-141.50;100.00;63355.56;5079904;28;20106;-79
2022/05/16 09:20:16;;;;;;;13.10;2.40;;;;;;;-141.50;100.00;63355.56;5057024;28;20492;-80
2022/05/16 09:22:42;;;;;;;10.70;2.50;;;;;;;-141.50;100.00;63355.56;5075273;28;20417;-78
2022/05/16 09:25:23;;;;;;;13.88;2.85;;;;;;;-141.50;100.00;63355.56;5074293;28;20084;-79
2022/05/16 09:30:58;;;;;;;9.73;2.30;;;;;;;-141.50;100.00;63355.56;5031246;28;20145;-76
2022/05/16 09:33:29;;;;;;;7.63;2.28;;;;;;;-141.50;100.00;63355.56;5052860;28;20121;-80
2022/05/16 09:36:03;;;;;;;12.65;2.50;;;;;;;-141.50;100.00;63355.56;5054176;28;20049;-78
2022/05/16 09:38:30;;;;;;;9.73;2.42;;;;;;;-141.50;100.00;63355.56;5058586;28;20103;-80
2022/05/16 09:40:59;;;;;;;9.15;2.75;;;;;;;-141.50;100.00;63355.56;5081057;28;20120;-80
2022/05/16 09:43:32;;;;;;;8.93;2.38;;;;;;;-141.50;100.00;63355.56;5085745;28;20053;-81
2022/05/16 09:46:14;;;;;;;9.95;2.80;;;;;;;-141.50;100.00;63355.56;5082446;28;20049;-80
2022/05/16 09:48:40;;;;;;;7.20;2.28;;;;;;;-141.50;100.00;63355.56;5081564;28;20049;-82
2022/05/16 09:51:07;;;;;;;5.68;2.15;;;;;;;-141.50;100.00;63355.56;5053734;28;20127;-81
2022/05/16 09:53:43;;;;;;;7.35;2.40;;;;;;;-141.50;100.00;63355.56;5056448;28;20124;-81
2022/05/16 09:56:30;;;;;;;13.02;2.40;;;;;;;-141.50;100.00;63355.56;5072602;28;20055;-80
2022/05/16 09:59:02;;;;;;;6.43;2.10;;;;;;;-141.50;100.00;63355.56;5055488;28;20060;-81
2022/05/16 10:01:28;;;;;;;6.00;2.10;;;;;;;-141.50;100.00;63355.56;5066991;28;20064;-81
2022/05/16 10:03:56;;;;;;;8.35;2.30;;;;;;;-141.50;100.00;63355.56;5075916;28;20143;-81
2022/05/16 10:06:31;;;;;;;11.18;2.53;;;;;;;-141.50;100.00;63355.56;5058307;28;20048;-80
2022/05/16 10:09:08;;;;;;;6.82;2.50;;;;;;;-141.50;100.00;63355.56;5078998;28;20136;-82
2022/05/16 10:11:37;;;;;;;7.53;2.38;;;;;;;-141.50;100.00;63355.56;5072910;28;20048;-80
2022/05/16 10:14:09;;;;;;;6.65;2.10;;;;;;;-141.50;100.00;63355.56;5056821;28;20496;-80
2022/05/16 10:16:41;;;;;;;9.32;2.40;;;;;;;-141.50;100.00;63355.56;5075548;28;20058;-80
2022/05/16 10:19:15;;;;;;;7.55;2.13;;;;;;;-141.50;100.00;63355.56;5075056;28;20112;-81
2022/05/16 10:21:57;;;;;;;7.07;2.38;;;;;;;-141.50;100.00;63355.56;5076868;28;20040;-81
2022/05/16 10:24:27;;;;;;;6.60;2.03;;;;;;;-141.50;100.00;63355.56;5078948;28;20512;-81
2022/05/16 10:26:56;;;;;;;7.28;2.33;;;;;;;-141.50;100.00;63355.56;5062994;28;20060;-81
2022/05/16 10:29:27;;;;;;;7.13;2.20;;;;;;;-141.50;100.00;63355.56;5068897;28;20071;-80
2022/05/16 10:35:02;;;;;;;5.70;2.10;;;;;;;-141.50;100.00;63355.56;5084418;28;20125;-82
2022/05/16 10:37:31;;;;;;;6.07;2.50;;;;;;;-141.50;100.00;63355.56;5064935;28;20110;-81
2022/05/16 10:40:11;;;;;;;5.72;2.45;;;;;;;-141.50;100.00;63355.56;5083913;28;20052;-83
2022/05/16 10:42:56;;;;;;;9.82;2.75;;;;;;;-141.50;100.00;63355.56;5065743;28;20048;-81
2022/05/16 10:45:26;;;;;;;4.93;1.98;;;;;;;-141.50;100.00;63355.56;5079375;28;20048;-83
2022/05/16 10:48:05;;;;;;;8.52;2.22;;;;;;;-141.50;100.00;63355.56;5058067;28;20171;-81
2022/05/16 10:50:54;;;;;;;6.50;2.30;;;;;;;-141.50;100.00;63355.56;5079430;28;20048;-76
2022/05/16 10:53:27;;;;;;;7.28;2.22;;;;;;;-141.50;100.00;63355.56;5073366;28;20123;-81
2022/05/16 10:56:14;;;;;;;8.90;1.95;;;;;;;-141.50;100.00;63355.56;5081884;28;20055;-79
2022/05/16 10:58:50;;;;;;;8.02;2.28;;;;;;;-141.50;100.00;63355.56;5064481;28;20757;-80
2022/05/16 11:01:29;;;;;;;5.40;2.33;;;;;;;-141.50;100.00;63355.56;5080486;28;20170;-83
2022/05/16 11:04:24;;;;;;;9.40;2.22;;;;;;;-141.50;100.00;63355.56;5064025;28;20047;-79
2022/05/16 11:07:06;;;;;;;8.75;2.42;;;;;;;-141.50;100.00;63355.56;5079092;28;20064;-81
2022/05/16 11:09:44;;;;;;;5.80;2.22;;;;;;;-141.50;100.00;63355.56;5081051;28;20049;-81
2022/05/16 11:12:24;;;;;;;6.53;2.22;;;;;;;-141.50;100.00;63355.56;5080501;28;20185;-81
2022/05/16 11:14:54;;;;;;;11.38;2.72;;;;;;;-141.50;100.00;63355.56;5079219;28;20052;-82
2022/05/16 11:17:56;;;;;;;8.07;2.40;;;;;;;-141.50;100.00;63355.56;5083784;28;20074;-77
2022/05/16 11:20:32;;;;;;;10.68;2.15;;;;;;;-141.50;100.00;63355.56;5086509;28;20060;-77
2022/05/16 11:23:07;;;;;;;5.30;2.40;;;;;;;-141.50;100.00;63355.56;5066794;28;20421;-81
2022/05/16 11:25:58;;;;;;;5.75;2.22;;;;;;;-141.50;100.00;63355.56;5061716;28;20493;-83
2022/05/16 11:28:34;;;;;;;8.30;2.45;;;;;;;-141.50;100.00;63355.56;5077676;28;20205;-80
2022/05/16 11:31:13;;;;;;;11.80;2.50;;;;;;;-141.50;100.00;63355.56;5075962;28;20119;-81
2022/05/16 11:34:11;;;;;;;12.07;2.30;;;;;;;-141.50;100.00;63355.56;5053660;28;20051;-82
2022/05/16 11:37:00;;;;;;;8.68;2.65;;;;;;;-141.50;100.00;63355.56;5071610;28;20056;-82
2022/05/16 11:39:40;;;;;;;5.55;2.70;;;;;;;-141.50;100.00;63355.56;5071915;28;20052;-83
2022/05/16 11:42:33;;;;;;;14.43;2.63;;;;;;;-141.50;100.00;63355.56;5070820;28;20230;-82
2022/05/16 11:45:09;;;;;;;10.98;2.70;;;;;;;-141.50;100.00;63355.56;5043383;28;20055;-82
2022/05/16 11:47:48;;;;;;;7.30;2.78;;;;;;;-141.50;100.00;63355.56;5062464;28;20082;-81